Time;durP1;ratioP1;P1;durP2;ratioP2;P2;SDS_P1;SDS_P2;PMS_P1;PMS_P2;Temp;Humidity;BMP_temperature;BMP_pressure;BME280_temperature;BME280_humidity;BME280_pressure;Samples;Min_cycle;Max_cycle;Signal;HPM_P1;HPM_P2
2021/06/17 00:00:34;;;;;;;8.52;3.63;;;;;;;21.48;59.88;99880.50;5072682;28;20129;-61
2021/06/17 00:03:02;;;;;;;6.47;3.53;;;;;;;21.35;59.82;99865.59;5079364;28;20125;-62
2021/06/17 00:05:32;;;;;;;8.63;4.03;;;;;;;21.50;59.83;99878.09;5066991;28;20164;-63
2021/06/17 00:08:01;;;;;;;7.50;4.07;;;;;;;21.50;60.03;99878.09;5070883;28;20076;-62
2021/06/17 00:10:32;;;;;;;9.13;3.83;;;;;;;21.50;59.79;99876.09;5061762;28;20084;-64
2021/06/17 00:13:02;;;;;;;5.60;3.78;;;;;;;21.51;59.74;99877.75;5066147;28;20055;-62
2021/06/17 00:15:30;;;;;;;7.15;4.55;;;;;;;21.48;59.80;99874.81;5066350;28;20040;-62
2021/06/17 00:17:58;;;;;;;6.25;3.33;;;;;;;21.33;59.75;99852.91;5073395;28;20037;-64
2021/06/17 00:20:27;;;;;;;7.25;3.63;;;;;;;21.42;59.88;99860.06;5077897;28;20062;-65
2021/06/17 00:22:55;;;;;;;7.60;4.22;;;;;;;21.43;59.86;99866.56;5073028;28;20052;-63
2021/06/17 00:25:22;;;;;;;8.10;3.40;;;;;;;21.35;59.76;99854.22;5071837;28;20119;-60
2021/06/17 00:27:49;;;;;;;8.43;3.45;;;;;;;21.41;60.11;99864.13;5072523;28;20041;-67
2021/06/17 00:30:16;;;;;;;8.77;3.65;;;;;;;21.39;60.18;99860.81;5074502;28;20128;-65
2021/06/17 00:32:44;;;;;;;6.43;3.25;;;;;;;21.40;60.29;99855.94;5072115;28;20455;-64
2021/06/17 00:35:13;;;;;;;8.18;4.03;;;;;;;21.41;60.11;99841.41;5069145;28;20080;-63
2021/06/17 00:37:41;;;;;;;7.10;3.28;;;;;;;21.17;60.83;99830.25;5067186;28;20044;-63
2021/06/17 00:40:11;;;;;;;9.52;3.83;;;;;;;21.16;61.61;99829.44;5070421;28;20175;-63
2021/06/17 00:42:40;;;;;;;8.23;3.92;;;;;;;21.06;62.12;99830.81;5059012;28;20470;-63
2021/06/17 00:45:11;;;;;;;7.70;3.75;;;;;;;21.00;62.13;99820.94;5071186;28;21565;-64
2021/06/17 00:47:39;;;;;;;6.13;3.72;;;;;;;20.92;62.38;99812.59;5071426;28;20044;-63
2021/06/17 00:50:08;;;;;;;9.75;3.95;;;;;;;20.93;62.80;99811.44;5069533;28;20044;-63
2021/06/17 00:52:35;;;;;;;7.40;3.95;;;;;;;20.95;62.98;99815.53;5072588;28;20250;-62
2021/06/17 00:55:04;;;;;;;6.63;4.07;;;;;;;20.97;63.14;99809.50;5066382;28;20138;-62
2021/06/17 00:57:30;;;;;;;12.13;3.92;;;;;;;20.68;63.62;99799.44;5069132;28;20048;-63
2021/06/17 00:59:57;;;;;;;7.65;3.45;;;;;;;20.66;64.30;99810.38;5070157;28;20095;-63
2021/06/17 01:02:24;;;;;;;5.13;3.20;;;;;;;20.63;63.90;99796.91;5068286;28;20500;-65
2021/06/17 01:04:51;;;;;;;7.63;4.13;;;;;;;20.60;64.23;99812.63;5066083;28;20102;-63
2021/06/17 01:07:32;;;;;;;9.95;4.22;;;;;;;20.55;64.30;99805.25;5070766;28;20037;-62
2021/06/17 01:10:09;;;;;;;5.75;3.72;;;;;;;20.61;64.48;99800.09;5069854;28;20131;-60
2021/06/17 01:13:02;;;;;;;7.43;3.95;;;;;;;20.64;64.49;99795.72;5064165;28;20143;-62
2021/06/17 01:15:31;;;;;;;5.93;3.78;;;;;;;20.77;64.70;99800.09;5073532;28;20068;-60
2021/06/17 01:18:04;;;;;;;6.18;3.90;;;;;;;20.95;64.21;99795.66;5069804;28;20139;-61
2021/06/17 01:20:51;;;;;;;8.98;4.70;;;;;;;21.19;63.78;99799.47;5067846;28;20132;-62
2021/06/17 01:23:49;;;;;;;6.93;3.97;;;;;;;21.08;63.43;99804.06;5074555;28;20132;-61
2021/06/17 01:26:49;;;;;;;9.95;4.65;;;;;;;20.90;63.79;99792.31;5062407;28;20135;-61
2021/06/17 01:29:21;;;;;;;8.40;3.85;;;;;;;20.72;64.22;99797.56;5061084;28;20041;-63
2021/06/17 01:31:50;;;;;;;7.85;4.20;;;;;;;21.11;64.80;99803.34;5070330;28;20140;-63
2021/06/17 01:34:18;;;;;;;9.90;3.60;;;;;;;21.21;64.18;99794.25;5074794;28;20067;-64
2021/06/17 01:36:49;;;;;;;7.32;3.03;;;;;;;21.11;64.21;99781.44;5078982;28;20246;-65
2021/06/17 01:39:19;;;;;;;8.30;4.25;;;;;;;21.19;63.95;99788.09;5067142;28;20123;-65
2021/06/17 01:41:48;;;;;;;12.73;3.60;;;;;;;21.14;63.94;99785.56;5073456;28;20501;-62
2021/06/17 01:44:18;;;;;;;7.85;3.42;;;;;;;21.15;64.15;99792.88;5067810;28;20071;-62
2021/06/17 01:46:47;;;;;;;8.05;3.85;;;;;;;21.22;63.55;99793.88;5076311;28;20123;-61
2021/06/17 01:49:16;;;;;;;7.03;3.63;;;;;;;21.18;63.54;99794.97;5071013;28;20040;-63
2021/06/17 01:51:44;;;;;;;6.38;3.65;;;;;;;21.09;63.42;99789.50;5073624;28;20132;-62
2021/06/17 01:54:21;;;;;;;8.57;3.80;;;;;;;20.99;63.46;99790.06;5073447;28;20385;-63
2021/06/17 01:56:53;;;;;;;6.93;4.10;;;;;;;21.01;63.75;99780.00;5072919;28;20083;-62
2021/06/17 01:59:23;;;;;;;6.03;3.80;;;;;;;21.00;63.74;99781.19;5063289;28;20123;-62
2021/06/17 02:01:53;;;;;;;;;;;;;;;20.92;63.69;99782.25;5075139;28;20519;-62
2021/06/17 02:04:20;;;;;;;6.82;3.35;;;;;;;20.90;63.92;99778.94;5071134;28;19964;-62
2021/06/17 02:06:47;;;;;;;7.47;3.08;;;;;;;20.85;64.06;99778.38;5072769;28;20071;-62
2021/06/17 02:09:16;;;;;;;7.72;3.67;;;;;;;20.84;64.16;99783.25;5074700;28;20573;-62
2021/06/17 02:11:44;;;;;;;8.02;3.35;;;;;;;20.70;64.34;99778.03;5073913;28;20068;-62
2021/06/17 02:14:12;;;;;;;7.28;4.00;;;;;;;20.64;64.84;99775.84;5069260;28;20283;-63
2021/06/17 02:16:43;;;;;;;6.88;4.50;;;;;;;20.58;65.44;99778.97;5075694;28;20624;-62
2021/06/17 02:19:17;;;;;;;15.20;4.55;;;;;;;20.48;65.37;99759.66;5056336;28;20144;-62
2021/06/17 02:21:48;;;;;;;6.35;3.40;;;;;;;20.58;65.23;99770.47;5063819;28;20123;-62
2021/06/17 02:24:17;;;;;;;10.52;4.78;;;;;;;20.59;65.27;99779.81;5071625;28;20059;-62
2021/06/17 02:26:47;;;;;;;8.05;5.25;;;;;;;20.51;65.58;99780.78;5071033;28;20040;-62
2021/06/17 02:29:18;;;;;;;12.75;4.80;;;;;;;20.44;65.78;99787.06;5069932;28;20135;-62
2021/06/17 02:31:49;;;;;;;8.25;4.30;;;;;;;20.39;65.97;99781.69;5071759;28;20036;-61
2021/06/17 02:34:17;;;;;;;10.20;4.95;;;;;;;20.41;66.01;99789.81;5072704;28;20443;-62
2021/06/17 02:36:46;;;;;;;10.20;5.18;;;;;;;20.39;66.36;99781.69;5068444;28;20082;-64
2021/06/17 02:39:19;;;;;;;15.70;5.63;;;;;;;20.40;66.11;99779.69;5078826;28;20040;-64
2021/06/17 02:41:50;;;;;;;11.05;5.53;;;;;;;20.34;66.07;99779.97;5063629;28;20131;-62
2021/06/17 02:44:20;;;;;;;9.75;4.90;;;;;;;20.45;65.77;99780.22;5077445;28;20307;-62
2021/06/17 02:46:47;;;;;;;10.98;4.80;;;;;;;20.50;65.63;99788.47;5069766;28;20143;-61
2021/06/17 02:49:14;;;;;;;14.60;5.38;;;;;;;20.56;65.33;99789.84;5090571;28;20044;-61
2021/06/17 02:51:41;;;;;;;11.18;4.80;;;;;;;20.63;65.14;99777.88;5078848;28;20502;-62
2021/06/17 02:54:08;;;;;;;9.10;4.45;;;;;;;20.72;65.15;99786.22;5073519;28;20079;-62
2021/06/17 02:56:55;;;;;;;12.95;5.45;;;;;;;20.77;64.77;99786.72;5086983;28;20457;-62
2021/06/17 02:59:59;;;;;;;6.63;3.95;;;;;;;20.84;64.62;99780.41;5069169;28;20042;-62
2021/06/17 03:02:44;;;;;;;13.63;4.95;;;;;;;20.76;64.57;99767.25;5072846;28;20079;-62
2021/06/17 03:05:28;;;;;;;7.68;4.43;;;;;;;21.01;64.60;99799.06;5066380;28;20076;-62
2021/06/17 03:08:00;;;;;;;7.85;4.15;;;;;;;21.09;64.39;99791.53;5071662;28;20040;-63
2021/06/17 03:10:30;;;;;;;9.25;5.20;;;;;;;21.14;64.37;99771.38;5078850;28;20048;-65
2021/06/17 03:13:01;;;;;;;11.55;6.15;;;;;;;21.18;64.45;99775.94;5072284;28;20045;-64
2021/06/17 03:15:33;;;;;;;18.80;6.38;;;;;;;21.25;64.19;99772.44;5069478;28;20143;-63
2021/06/17 03:18:02;;;;;;;11.00;5.93;;;;;;;21.31;64.08;99770.94;5069016;28;20488;-63
2021/06/17 03:20:32;;;;;;;12.05;5.88;;;;;;;21.17;64.05;99748.75;5081542;28;20131;-63
2021/06/17 03:23:00;;;;;;;;;;;;;;;21.25;63.81;99764.72;5075667;28;21604;-63
2021/06/17 03:25:28;;;;;;;9.85;6.10;;;;;;;21.14;64.05;99751.50;5053327;28;20007;-61
2021/06/17 03:27:56;;;;;;;11.57;5.78;;;;;;;21.17;64.27;99756.44;5082779;28;20135;-62
2021/06/17 03:30:26;;;;;;;18.60;5.97;;;;;;;21.09;64.09;99757.44;5073367;28;20044;-61
2021/06/17 03:32:55;;;;;;;13.02;5.38;;;;;;;20.98;64.27;99734.50;5071681;28;20484;-61
2021/06/17 03:35:23;;;;;;;11.23;4.88;;;;;;;21.14;64.42;99751.50;5072626;28;20143;-60
2021/06/17 03:37:51;;;;;;;12.60;5.28;;;;;;;21.19;64.11;99756.88;5072820;28;20147;-59
2021/06/17 03:40:19;;;;;;;11.80;5.47;;;;;;;21.09;64.02;99731.91;5071956;28;20079;-59
2021/06/17 03:42:48;;;;;;;9.70;5.13;;;;;;;21.11;64.16;99743.72;5077841;28;20092;-60
2021/06/17 03:45:15;;;;;;;12.63;5.15;;;;;;;21.08;64.24;99755.81;5070702;28;20158;-60
2021/06/17 03:47:47;;;;;;;11.07;5.22;;;;;;;21.01;64.38;99743.09;5071166;28;20127;-60
2021/06/17 03:50:17;;;;;;;13.55;4.90;;;;;;;21.02;64.38;99752.44;5073720;28;20083;-59
2021/06/17 03:52:45;;;;;;;;;;;;;;;21.07;64.05;99749.31;5064745;28;20135;-60
2021/06/17 03:55:21;;;;;;;13.30;5.07;;;;;;;21.02;64.24;99739.06;5071860;28;20039;-60
2021/06/17 03:57:52;;;;;;;17.25;4.97;;;;;;;21.03;64.16;99735.06;5074431;28;20480;-60
2021/06/17 04:00:19;;;;;;;10.73;4.68;;;;;;;20.91;64.44;99712.47;5055084;28;20144;-60
2021/06/17 04:02:46;;;;;;;8.93;5.35;;;;;;;21.11;64.14;99758.72;5078460;28;20044;-60
2021/06/17 04:05:14;;;;;;;9.73;4.35;;;;;;;20.89;64.18;99717.69;5073125;28;20131;-60
2021/06/17 04:07:44;;;;;;;10.88;4.53;;;;;;;21.11;63.92;99757.91;5075168;28;20045;-60
2021/06/17 04:10:14;;;;;;;7.93;3.92;;;;;;;21.11;63.89;99752.25;5062657;28;20045;-61
2021/06/17 04:12:42;;;;;;;12.13;5.57;;;;;;;21.19;64.04;99751.19;5082946;28;20130;-61
2021/06/17 04:15:10;;;;;;;14.80;3.88;;;;;;;21.14;63.75;99748.66;5070653;28;20139;-60
2021/06/17 04:17:41;;;;;;;10.65;4.30;;;;;;;21.08;63.77;99730.28;5071020;28;20049;-61
2021/06/17 04:20:15;;;;;;;7.28;3.67;;;;;;;21.13;63.82;99744.16;5080737;28;20128;-64
2021/06/17 04:22:45;;;;;;;10.70;4.63;;;;;;;21.11;63.88;99746.56;5067528;28;20131;-61
2021/06/17 04:25:15;;;;;;;9.32;3.92;;;;;;;21.14;63.77;99751.50;5070679;28;20128;-61
2021/06/17 04:27:43;;;;;;;10.48;3.67;;;;;;;21.14;63.78;99748.66;5075584;28;20048;-60
2021/06/17 04:30:10;;;;;;;8.82;3.83;;;;;;;21.23;63.67;99754.94;5067418;28;20040;-60
2021/06/17 04:32:42;;;;;;;8.63;4.10;;;;;;;21.18;63.52;99746.72;5066324;28;20123;-61
2021/06/17 04:35:11;;;;;;;8.60;4.57;;;;;;;21.18;63.50;99747.53;5067713;28;20495;-60
2021/06/17 04:37:38;;;;;;;11.70;3.53;;;;;;;21.22;63.53;99753.28;5072174;28;20075;-60
2021/06/17 04:40:08;;;;;;;8.38;4.07;;;;;;;21.07;63.70;99740.81;5077018;28;20079;-61
2021/06/17 04:42:35;;;;;;;10.32;3.60;;;;;;;21.12;63.46;99757.53;5074245;28;20556;-66
2021/06/17 04:45:03;;;;;;;8.00;4.10;;;;;;;21.02;63.54;99743.91;5071293;28;20080;-69
2021/06/17 04:47:30;;;;;;;7.50;4.38;;;;;;;21.06;63.62;99751.34;5069045;28;20045;-67
2021/06/17 04:49:57;;;;;;;8.10;3.80;;;;;;;21.10;63.70;99761.97;5067861;28;20067;-62
2021/06/17 04:52:24;;;;;;;9.43;3.78;;;;;;;21.12;63.52;99759.56;5081811;28;20072;-62
2021/06/17 04:54:51;;;;;;;6.75;4.20;;;;;;;21.11;63.76;99743.72;5062802;28;20054;-62
2021/06/17 04:57:17;;;;;;;8.43;4.68;;;;;;;20.83;63.74;99697.28;5080361;28;20083;-62
2021/06/17 04:59:44;;;;;;;6.82;3.85;;;;;;;21.18;63.68;99741.84;5071667;28;20571;-62
2021/06/17 05:02:11;;;;;;;9.55;4.43;;;;;;;21.22;63.53;99742.75;5060877;28;20085;-62
2021/06/17 05:04:39;;;;;;;8.15;4.43;;;;;;;21.16;63.73;99720.69;5069043;28;20123;-60
2021/06/17 05:12:18;;;;;;;8.82;4.93;;;;;;;21.30;63.46;99740.91;5070052;28;20080;-61
2021/06/17 05:14:45;;;;;;;11.27;5.10;;;;;;;21.30;63.41;99743.75;5067222;28;20053;-63
2021/06/17 05:17:12;;;;;;;7.38;4.30;;;;;;;21.34;63.55;99733.31;5074441;28;20131;-59
2021/06/17 05:19:39;;;;;;;11.15;4.78;;;;;;;21.35;63.37;99732.09;5075556;28;20059;-64
2021/06/17 05:22:08;;;;;;;10.02;4.70;;;;;;;21.38;63.36;99727.72;5078834;28;20068;-60
2021/06/17 05:24:36;;;;;;;7.90;4.45;;;;;;;21.29;63.28;99716.53;5067337;28;20091;-60
2021/06/17 05:27:04;;;;;;;10.35;4.47;;;;;;;21.30;63.50;99716.16;5084286;28;20123;-59
2021/06/17 05:29:31;;;;;;;8.07;4.00;;;;;;;21.39;63.50;99735.03;5078800;28;20137;-58
2021/06/17 05:31:58;;;;;;;7.55;4.53;;;;;;;21.39;63.52;99729.34;5079606;28;20082;-58
2021/06/17 05:34:25;;;;;;;6.43;3.83;;;;;;;21.37;63.52;99726.91;5065039;28;20433;-58
2021/06/17 05:36:52;;;;;;;10.73;5.43;;;;;;;21.38;63.68;99731.38;5066683;28;20131;-58
2021/06/17 05:39:18;;;;;;;12.40;4.75;;;;;;;21.38;63.50;99728.53;5076389;28;20076;-59
2021/06/17 05:41:45;;;;;;;7.30;4.97;;;;;;;21.21;63.77;99711.91;5083700;28;20139;-59
2021/06/17 05:44:12;;;;;;;11.90;5.20;;;;;;;21.30;63.63;99729.56;5066953;28;20120;-59
2021/06/17 05:46:42;;;;;;;9.40;5.70;;;;;;;21.38;63.69;99739.88;5074353;28;20048;-59
2021/06/17 05:49:09;;;;;;;10.13;5.45;;;;;;;21.37;63.92;99745.94;5069397;28;20101;-58
2021/06/17 05:51:35;;;;;;;10.55;4.65;;;;;;;21.28;63.97;99746.94;5071684;28;20051;-61
2021/06/17 05:54:03;;;;;;;18.08;5.85;;;;;;;21.27;63.81;99747.34;5073372;28;20037;-62
2021/06/17 05:56:32;;;;;;;13.18;6.10;;;;;;;21.14;64.07;99740.97;5066807;28;20139;-60
2021/06/17 05:58:59;;;;;;;14.85;6.00;;;;;;;21.16;64.07;99746.25;5075836;28;20040;-59
2021/06/17 06:01:26;;;;;;;11.55;5.45;;;;;;;21.16;64.15;99749.09;5075434;28;20045;-59
2021/06/17 06:03:53;;;;;;;12.63;5.75;;;;;;;21.09;64.17;99746.91;5073390;28;20140;-59
2021/06/17 06:06:20;;;;;;;16.52;6.10;;;;;;;21.02;64.26;99741.09;5072487;28;20076;-59
2021/06/17 06:08:46;;;;;;;12.75;6.65;;;;;;;20.99;64.17;99750.34;5080943;28;20040;-60
2021/06/17 06:11:18;;;;;;;11.63;5.60;;;;;;;20.94;64.48;99748.63;5073580;28;20047;-59
2021/06/17 06:13:46;;;;;;;10.95;6.30;;;;;;;20.89;64.67;99746.06;5064433;28;20101;-60
2021/06/17 06:16:13;;;;;;;13.90;6.25;;;;;;;20.85;64.86;99745.16;5079525;28;20090;-60
2021/06/17 06:18:41;;;;;;;19.92;6.15;;;;;;;20.67;64.90;99732.56;5053900;28;20067;-60
2021/06/17 06:21:07;;;;;;;10.80;5.50;;;;;;;20.69;65.02;99750.06;5071436;28;20044;-60
2021/06/17 06:23:34;;;;;;;20.13;7.03;;;;;;;20.50;65.24;99733.75;5067864;28;20492;-60
2021/06/17 06:26:02;;;;;;;11.55;5.97;;;;;;;20.58;65.28;99764.81;5071424;28;20083;-60
2021/06/17 06:28:30;;;;;;;16.38;6.03;;;;;;;20.61;65.32;99760.38;5074306;28;20135;-60
2021/06/17 06:30:58;;;;;;;14.47;6.63;;;;;;;20.64;65.69;99753.16;5080007;28;20040;-60
2021/06/17 06:33:25;;;;;;;13.88;6.82;;;;;;;20.82;65.23;99760.09;5066383;28;20289;-60
2021/06/17 06:35:52;;;;;;;13.90;6.13;;;;;;;20.78;64.97;99760.00;5069766;28;20056;-61
2021/06/17 06:38:20;;;;;;;10.48;4.75;;;;;;;20.89;65.37;99768.78;5073594;28;20128;-60
2021/06/17 06:40:47;;;;;;;13.15;6.25;;;;;;;20.80;65.17;99751.13;5077003;28;20131;-60
2021/06/17 06:43:16;;;;;;;13.77;5.25;;;;;;;20.99;65.27;99761.69;5069676;28;20131;-61
2021/06/17 06:45:42;;;;;;;14.10;5.22;;;;;;;20.90;65.12;99773.25;5063349;28;20091;-60
2021/06/17 06:48:10;;;;;;;14.45;5.95;;;;;;;20.90;65.13;99772.44;5065063;28;20040;-61
2021/06/17 06:50:37;;;;;;;10.23;6.38;;;;;;;20.89;65.08;99767.94;5056798;28;20068;-60
2021/06/17 06:53:04;;;;;;;18.15;6.18;;;;;;;20.83;65.08;99762.56;5069075;28;20563;-60
2021/06/17 06:55:31;;;;;;;8.35;4.63;;;;;;;21.09;65.32;99777.31;5043943;28;20500;-60
2021/06/17 06:57:58;;;;;;;14.75;6.50;;;;;;;21.45;65.10;99774.13;5067574;28;20131;-59
2021/06/17 07:00:25;;;;;;;15.98;5.60;;;;;;;21.52;64.37;99768.59;5065573;28;20120;-61
2021/06/17 07:02:52;;;;;;;11.30;5.32;;;;;;;21.56;64.30;99780.03;5065522;28;20053;-61
2021/06/17 07:05:19;;;;;;;14.80;5.50;;;;;;;21.59;64.25;99778.47;5062047;28;20512;-61
2021/06/17 07:07:46;;;;;;;9.13;5.30;;;;;;;21.68;63.98;99768.53;5063431;28;20542;-60
2021/06/17 07:10:14;;;;;;;10.52;5.15;;;;;;;21.51;63.98;99781.16;5067627;28;20094;-60
2021/06/17 07:12:42;;;;;;;11.68;5.43;;;;;;;21.46;64.17;99786.31;5071742;28;20463;-60
2021/06/17 07:15:10;;;;;;;12.55;5.47;;;;;;;21.44;63.80;99775.31;5068768;28;20048;-60
2021/06/17 07:17:37;;;;;;;10.55;4.90;;;;;;;21.42;63.74;99789.06;5070820;28;20091;-60
2021/06/17 07:20:05;;;;;;;9.00;5.25;;;;;;;21.36;64.07;99782.03;5071123;28;20103;-59
2021/06/17 07:22:32;;;;;;;16.05;5.63;;;;;;;21.35;63.86;99786.06;5071077;28;20095;-60
2021/06/17 07:24:59;;;;;;;10.75;5.45;;;;;;;21.48;63.97;99790.41;5071251;28;20056;-59
2021/06/17 07:27:25;;;;;;;9.98;4.82;;;;;;;21.59;63.29;99778.47;5059663;28;20136;-59
2021/06/17 07:29:52;;;;;;;16.00;6.53;;;;;;;21.72;62.87;99779.97;5069348;28;20041;-59
2021/06/17 07:32:20;;;;;;;8.38;4.72;;;;;;;21.63;63.20;99779.34;5072276;28;20155;-59
2021/06/17 07:34:46;;;;;;;11.15;4.90;;;;;;;21.72;62.98;99794.16;5066775;28;20510;-61
2021/06/17 07:37:14;;;;;;;10.80;5.20;;;;;;;21.53;63.35;99758.03;5058523;28;20056;-60
2021/06/17 07:39:42;;;;;;;14.15;5.38;;;;;;;21.78;62.88;99778.47;5071398;28;20488;-61
2021/06/17 07:42:10;;;;;;;24.63;5.78;;;;;;;21.83;62.85;99795.19;5072627;28;20055;-61
2021/06/17 07:44:37;;;;;;;10.40;5.53;;;;;;;21.69;62.58;99789.22;5066161;28;20080;-58
2021/06/17 07:47:05;;;;;;;12.85;5.20;;;;;;;21.68;62.76;99796.13;5071670;28;20151;-59
2021/06/17 07:49:32;;;;;;;7.05;3.72;;;;;;;21.75;63.46;99787.75;5065116;28;20376;-59
2021/06/17 07:51:59;;;;;;;11.77;4.70;;;;;;;21.80;62.60;99800.81;5071677;28;20495;-58
2021/06/17 07:54:26;;;;;;;9.95;5.13;;;;;;;21.77;62.37;99791.00;5072668;28;20122;-59
2021/06/17 07:56:55;;;;;;;8.52;4.50;;;;;;;21.71;62.58;99798.22;5069556;28;20060;-59
2021/06/17 07:59:22;;;;;;;11.00;4.70;;;;;;;21.60;63.04;99803.66;5065217;28;20472;-59
2021/06/17 08:01:50;;;;;;;10.93;5.15;;;;;;;21.45;63.07;99805.38;5067085;28;20120;-59
2021/06/17 08:04:19;;;;;;;17.45;6.60;;;;;;;21.05;63.67;99778.06;5070836;28;20040;-59
2021/06/17 08:06:46;;;;;;;13.80;5.40;;;;;;;21.01;64.01;99808.38;5057750;28;20048;-59
2021/06/17 08:09:18;;;;;;;10.32;5.35;;;;;;;21.02;64.16;99812.88;5065801;28;20044;-59
2021/06/17 08:11:46;;;;;;;10.82;4.50;;;;;;;20.98;64.43;99805.47;5068919;28;20541;-64
2021/06/17 08:14:22;;;;;;;12.90;5.57;;;;;;;20.78;64.35;99801.72;5067122;28;20074;-60
2021/06/17 08:16:49;;;;;;;13.43;5.10;;;;;;;20.80;64.82;99810.72;5066115;28;20128;-60
2021/06/17 08:19:17;;;;;;;16.00;5.40;;;;;;;20.66;64.89;99797.00;5064231;28;20068;-60
2021/06/17 08:21:44;;;;;;;14.43;5.28;;;;;;;20.75;65.08;99813.81;5068192;28;20404;-60
2021/06/17 08:24:11;;;;;;;11.45;5.70;;;;;;;20.76;65.20;99802.13;5068048;28;20044;-59
2021/06/17 08:26:38;;;;;;;12.23;5.32;;;;;;;20.85;65.09;99807.59;5067507;28;20050;-60
2021/06/17 08:29:05;;;;;;;12.93;5.78;;;;;;;20.87;65.21;99810.06;5072926;28;20584;-59
2021/06/17 08:31:31;;;;;;;10.57;4.95;;;;;;;21.15;65.11;99815.59;5062937;28;20075;-59
2021/06/17 08:33:59;;;;;;;7.97;4.00;;;;;;;21.36;64.30;99809.59;5066217;28;20058;-60
2021/06/17 08:36:26;;;;;;;11.48;4.95;;;;;;;21.39;64.04;99815.38;5059960;28;20075;-59
2021/06/17 08:38:52;;;;;;;11.07;4.50;;;;;;;21.45;64.50;99813.88;5059097;28;20077;-60
2021/06/17 08:41:19;;;;;;;7.10;4.10;;;;;;;21.46;64.10;99817.53;5067283;28;20132;-61
2021/06/17 08:43:50;;;;;;;10.55;5.30;;;;;;;21.34;64.42;99812.84;5068666;28;20045;-61
2021/06/17 08:46:18;;;;;;;11.53;5.67;;;;;;;21.22;64.46;99805.22;5064535;28;20546;-61
2021/06/17 08:48:48;;;;;;;7.05;3.90;;;;;;;21.03;64.52;99786.16;5067507;28;20056;-60
2021/06/17 08:51:17;;;;;;;12.13;5.47;;;;;;;21.05;65.00;99800.78;5058655;28;20090;-60
2021/06/17 08:53:48;;;;;;;12.65;4.78;;;;;;;21.32;65.44;99792.47;5069102;28;20044;-60
2021/06/17 08:56:15;;;;;;;6.00;3.63;;;;;;;21.78;64.74;99801.19;5066517;28;20151;-60
2021/06/17 08:58:42;;;;;;;8.88;4.10;;;;;;;22.04;64.66;99799.66;5072657;28;20063;-60
2021/06/17 09:01:13;;;;;;;12.80;5.60;;;;;;;22.10;63.56;99781.09;5065531;28;20074;-60
2021/06/17 09:03:42;;;;;;;8.73;4.50;;;;;;;22.45;63.32;99789.50;5071391;28;20059;-59
2021/06/17 09:06:10;;;;;;;14.07;6.93;;;;;;;22.41;62.50;99783.75;5077885;28;20480;-60
2021/06/17 09:08:37;;;;;;;9.13;4.90;;;;;;;22.13;62.97;99792.53;5063298;28;20844;-60
2021/06/17 09:11:17;;;;;;;8.77;4.57;;;;;;;21.81;63.51;99791.09;5074093;28;20071;-59
2021/06/17 09:13:44;;;;;;;11.45;5.40;;;;;;;21.77;63.37;99805.22;5072637;28;20408;-60
2021/06/17 09:16:27;;;;;;;12.18;5.45;;;;;;;21.82;63.46;99789.91;5067826;28;20079;-60
2021/06/17 09:18:54;;;;;;;14.57;6.25;;;;;;;21.96;63.47;99793.84;5072570;28;20040;-60
2021/06/17 09:21:21;;;;;;;10.77;6.55;;;;;;;22.20;62.80;99791.88;5064653;28;20074;-61
2021/06/17 09:23:49;;;;;;;11.75;6.75;;;;;;;22.40;62.21;99793.47;5079033;28;20560;-60
2021/06/17 09:26:21;;;;;;;12.90;5.57;;;;;;;22.20;62.38;99795.56;5065002;28;20051;-61
2021/06/17 09:29:07;;;;;;;4.72;2.60;;;;;;;21.82;62.55;99793.56;5073795;28;20072;-60
2021/06/17 09:31:41;;;;;;;12.82;6.30;;;;;;;21.46;62.88;99794.81;5074098;28;20064;-60
2021/06/17 09:34:14;;;;;;;11.35;5.93;;;;;;;21.37;63.36;99791.38;5066129;28;20127;-60
2021/06/17 09:36:41;;;;;;;11.88;5.60;;;;;;;21.11;63.54;99791.97;5072585;28;20088;-61
2021/06/17 09:39:15;;;;;;;10.95;5.53;;;;;;;21.05;64.04;99800.78;5070591;28;20127;-60
2021/06/17 09:41:44;;;;;;;10.15;5.05;;;;;;;21.09;63.85;99788.69;5073918;28;20076;-61
2021/06/17 09:44:32;;;;;;;12.32;5.10;;;;;;;20.93;63.71;99772.53;5076750;28;20047;-60
2021/06/17 09:47:03;;;;;;;10.30;4.93;;;;;;;20.93;63.48;99755.50;5067297;28;20068;-61
2021/06/17 09:49:30;;;;;;;5.60;3.75;;;;;;;21.13;63.22;99789.59;5064628;28;20500;-60
2021/06/17 09:51:56;;;;;;;7.82;4.22;;;;;;;21.06;63.58;99796.75;5073471;28;20127;-60
2021/06/17 09:54:28;;;;;;;15.40;4.47;;;;;;;21.06;63.80;99799.59;5070590;28;20041;-60
2021/06/17 09:57:06;;;;;;;11.75;5.80;;;;;;;21.15;63.35;99773.00;5068313;28;20071;-59
2021/06/17 09:59:43;;;;;;;10.80;5.28;;;;;;;21.60;62.63;99800.81;5070362;28;20090;-61
2021/06/17 10:02:12;;;;;;;8.88;5.07;;;;;;;21.74;62.21;99792.59;5069526;28;20072;-59
2021/06/17 10:04:39;;;;;;;;;;;;;;;21.62;62.36;99789.09;5066550;28;20044;-59
2021/06/17 10:07:07;;;;;;;9.55;4.75;;;;;;;21.77;61.91;99806.03;5070754;28;19920;-60
2021/06/17 10:09:34;;;;;;;11.70;4.43;;;;;;;21.84;61.47;99794.00;5070053;28;20064;-60
2021/06/17 10:12:02;;;;;;;10.88;4.30;;;;;;;21.74;61.28;99788.91;5075294;28;20036;-60
2021/06/17 10:14:30;;;;;;;7.03;4.70;;;;;;;21.79;61.37;99800.00;5059102;28;20073;-60
2021/06/17 10:17:00;;;;;;;9.45;4.43;;;;;;;21.81;61.44;99800.44;5079533;28;20143;-60
2021/06/17 10:19:28;;;;;;;9.10;3.47;;;;;;;21.96;61.33;99805.22;5075918;28;20512;-60
2021/06/17 10:21:55;;;;;;;8.77;4.40;;;;;;;22.06;61.38;99811.50;5068582;28;20136;-60
2021/06/17 10:24:24;;;;;;;9.93;4.55;;;;;;;22.02;61.64;99797.22;5061855;28;20535;-60
2021/06/17 10:26:57;;;;;;;9.40;3.95;;;;;;;22.34;61.33;99808.41;5065766;28;20135;-60
2021/06/17 10:29:26;;;;;;;8.18;4.00;;;;;;;22.35;61.18;99805.16;5065925;28;20105;-60
2021/06/17 10:31:57;;;;;;;6.35;3.75;;;;;;;22.18;61.65;99811.34;5069826;28;20068;-60
2021/06/17 10:34:30;;;;;;;10.63;4.25;;;;;;;22.19;61.56;99821.53;5070638;28;20123;-60
2021/06/17 10:37:18;;;;;;;4.78;3.05;;;;;;;22.21;61.43;99814.25;5061855;28;20139;-60
2021/06/17 10:40:06;;;;;;;9.50;3.40;;;;;;;22.09;61.80;99816.44;5066796;28;20579;-60
2021/06/17 10:42:39;;;;;;;10.98;4.50;;;;;;;21.94;62.22;99818.16;5069146;28;20044;-60
2021/06/17 10:45:30;;;;;;;6.38;3.65;;;;;;;22.08;62.27;99823.31;5065023;28;20136;-60
2021/06/17 10:47:59;;;;;;;8.32;2.83;;;;;;;22.01;62.30;99819.09;5072112;28;20131;-60
2021/06/17 10:51:01;;;;;;;6.43;3.15;;;;;;;21.82;62.50;99821.16;5078770;28;20123;-60
2021/06/17 10:53:32;;;;;;;4.00;2.60;;;;;;;21.68;62.89;99838.75;5044091;28;20492;-59
2021/06/17 10:56:08;;;;;;;9.30;3.08;;;;;;;21.44;63.37;99839.84;5071765;28;20044;-59
2021/06/17 10:58:41;;;;;;;4.57;2.20;;;;;;;21.21;63.55;99834.00;5065381;28;20143;-60
2021/06/17 11:01:47;;;;;;;5.70;2.60;;;;;;;20.93;63.90;99837.81;5070049;28;20129;-59
2021/06/17 11:04:44;;;;;;;4.97;2.17;;;;;;;20.86;64.35;99831.94;5066091;28;20037;-59
2021/06/17 11:07:14;;;;;;;4.00;2.80;;;;;;;20.68;64.78;99811.63;5068744;28;20175;-60
2021/06/17 11:09:47;;;;;;;3.78;2.35;;;;;;;20.82;65.11;99823.34;5068452;28;20098;-60
2021/06/17 11:12:17;;;;;;;5.55;2.60;;;;;;;20.80;65.37;99827.75;5069831;28;20072;-60
2021/06/17 11:14:46;;;;;;;4.93;2.50;;;;;;;20.74;65.35;99823.53;5070752;28;20123;-60
2021/06/17 11:17:32;;;;;;;6.68;2.55;;;;;;;20.69;65.30;99824.63;5069665;28;20139;-60
2021/06/17 11:20:18;;;;;;;4.18;2.30;;;;;;;20.83;65.64;99830.66;5062322;28;20128;-60
2021/06/17 11:22:45;;;;;;;4.53;2.58;;;;;;;21.00;65.57;99829.47;5064788;28;20135;-60
2021/06/17 11:25:18;;;;;;;5.45;1.80;;;;;;;20.98;65.59;99829.00;5077943;28;20503;-60
2021/06/17 11:28:06;;;;;;;3.28;2.10;;;;;;;21.07;65.45;99828.81;5070100;28;20052;-60
2021/06/17 11:30:41;;;;;;;4.60;1.80;;;;;;;21.23;65.31;99823.94;5069009;28;20052;-60
2021/06/17 11:33:14;;;;;;;3.15;1.73;;;;;;;21.16;65.43;99828.59;5062126;28;20047;-60
2021/06/17 11:35:41;;;;;;;;;;;;;;;21.42;65.18;99828.84;5063869;28;20122;-60
2021/06/17 11:38:08;;;;;;;4.18;2.10;;;;;;;21.50;64.71;99827.81;5066983;28;19921;-60
2021/06/17 11:40:35;;;;;;;4.10;1.58;;;;;;;21.47;64.81;99814.34;5066648;28;20080;-60
2021/06/17 11:43:03;;;;;;;3.85;1.60;;;;;;;21.78;64.58;99823.94;5070218;28;20048;-58
2021/06/17 11:45:35;;;;;;;3.78;1.67;;;;;;;22.20;63.91;99814.66;5065394;28;20131;-58
2021/06/17 11:48:07;;;;;;;3.22;1.80;;;;;;;22.23;63.73;99811.03;5056254;28;20193;-58
2021/06/17 11:50:43;;;;;;;4.70;1.73;;;;;;;22.27;63.79;99826.16;5068720;28;20041;-59